createdAt,value
2023-12-09T00:00:29.692Z,1.97
2023-12-09T00:03:40.740Z,1.98
2023-12-09T00:05:40.594Z,1.96
2023-12-09T00:07:40.549Z,1.95
2023-12-09T00:09:40.745Z,1.96
2023-12-09T00:11:40.538Z,1.87
2023-12-09T00:13:40.537Z,1.82
2023-12-09T00:15:40.582Z,1.89
2023-12-09T00:18:34.837Z,1.87
2023-12-09T00:20:34.669Z,1.89
2023-12-09T00:22:34.670Z,1.89
2023-12-09T00:24:34.715Z,1.93
2023-12-09T00:26:34.736Z,1.91
2023-12-09T00:28:34.699Z,1.92
2023-12-09T00:30:34.873Z,1.91
2023-12-09T00:33:54.845Z,1.97
2023-12-09T00:35:54.698Z,1.99
2023-12-09T00:37:54.521Z,1.99
2023-12-09T00:39:54.583Z,1.98
2023-12-09T00:41:54.716Z,1.93
2023-12-09T00:43:54.542Z,1.84
2023-12-09T00:45:54.541Z,1.81
2023-12-09T00:49:03.601Z,1.92
2023-12-09T00:51:03.345Z,1.91
2023-12-09T00:53:03.451Z,1.91
2023-12-09T00:55:03.647Z,1.79
2023-12-09T00:57:03.318Z,1.81
2023-12-09T00:59:03.521Z,1.8
2023-12-09T01:01:03.319Z,1.78
2023-12-09T01:03:53.644Z,1.81
2023-12-09T01:05:53.482Z,1.8
2023-12-09T01:07:53.542Z,1.8
2023-12-09T01:09:53.480Z,1.77
2023-12-09T01:11:54.681Z,1.78
2023-12-09T01:13:53.526Z,1.76
2023-12-09T01:15:53.530Z,1.81
2023-12-09T01:19:12.715Z,1.76
2023-12-09T01:21:12.769Z,1.72
2023-12-09T01:23:12.723Z,1.76
2023-12-09T01:25:12.688Z,1.82
2023-12-09T01:27:12.756Z,1.79
2023-12-09T01:29:12.727Z,1.79
2023-12-09T01:31:12.698Z,1.81
2023-12-09T01:34:40.036Z,1.77
2023-12-09T01:36:39.730Z,1.82
2023-12-09T01:38:39.949Z,1.82
2023-12-09T01:40:39.695Z,1.86
2023-12-09T01:42:39.729Z,1.87
2023-12-09T01:44:39.818Z,1.87
2023-12-09T01:46:39.705Z,1.9
2023-12-09T01:49:22.524Z,1.92
2023-12-09T01:51:22.663Z,1.92
2023-12-09T01:53:22.450Z,1.9
2023-12-09T01:55:22.536Z,1.74
2023-12-09T01:57:22.497Z,1.84
2023-12-09T01:59:22.598Z,1.86
2023-12-09T02:01:22.480Z,1.9
2023-12-09T02:04:32.306Z,1.89
2023-12-09T02:06:32.279Z,1.85
2023-12-09T02:08:32.255Z,1.88
2023-12-09T02:10:32.301Z,1.92
2023-12-09T02:12:32.321Z,1.93
2023-12-09T02:14:32.570Z,1.87
2023-12-09T02:16:32.328Z,1.95
2023-12-09T02:20:24.291Z,1.97
2023-12-09T02:22:24.359Z,1.95
2023-12-09T02:24:24.278Z,1.94
2023-12-09T02:26:24.299Z,1.9
2023-12-09T02:28:24.255Z,1.9
2023-12-09T02:30:24.321Z,1.8
2023-12-09T02:32:24.642Z,1.88
2023-12-09T02:35:25.372Z,1.9
2023-12-09T02:37:25.331Z,1.86
2023-12-09T02:39:25.372Z,1.87
2023-12-09T02:41:25.586Z,1.88
2023-12-09T02:43:25.328Z,1.89
2023-12-09T02:45:25.536Z,1.86
2023-12-09T02:47:25.652Z,1.89
2023-12-09T02:50:22.760Z,1.87
2023-12-09T02:52:22.801Z,1.91
2023-12-09T02:54:22.874Z,1.94
2023-12-09T02:56:22.816Z,1.96
2023-12-09T02:58:22.719Z,1.9
2023-12-09T03:00:22.856Z,1.88
2023-12-09T03:02:22.716Z,1.88
2023-12-09T03:05:49.046Z,1.95
2023-12-09T03:07:48.981Z,1.98
2023-12-09T03:09:48.951Z,1.96
2023-12-09T03:11:49.002Z,1.98
2023-12-09T03:13:49.037Z,1.96
2023-12-09T03:15:48.982Z,1.94
2023-12-09T03:17:49.263Z,1.96
2023-12-09T03:20:09.456Z,2.02
2023-12-09T03:22:09.476Z,1.98
2023-12-09T03:24:09.601Z,2
2023-12-09T03:26:09.419Z,1.97
2023-12-09T03:28:09.433Z,1.93
2023-12-09T03:30:09.477Z,1.96
2023-12-09T03:32:09.614Z,1.97
2023-12-09T03:34:09.500Z,1.98
2023-12-09T03:35:20.972Z,1.93
2023-12-09T03:37:20.983Z,1.91
2023-12-09T03:39:21.144Z,1.99
2023-12-09T03:41:22.473Z,1.96
2023-12-09T03:43:21.014Z,1.93
2023-12-09T03:45:21.127Z,1.96
2023-12-09T03:47:25.708Z,1.93
2023-12-09T03:49:20.963Z,1.89
2023-12-09T03:51:19.923Z,1.89
2023-12-09T03:53:19.741Z,1.97
2023-12-09T03:55:19.720Z,1.97
2023-12-09T03:57:19.717Z,1.94
2023-12-09T03:59:19.721Z,1.94
2023-12-09T04:01:19.870Z,1.95
2023-12-09T04:03:20.081Z,1.93
2023-12-09T04:06:27.270Z,1.96
2023-12-09T04:08:28.363Z,1.97
2023-12-09T04:10:27.261Z,2
2023-12-09T04:12:27.452Z,2.01
2023-12-09T04:14:27.687Z,2.03
2023-12-09T04:16:27.253Z,2.03
2023-12-09T04:18:27.300Z,2.02
2023-12-09T04:21:32.027Z,2.05
2023-12-09T04:23:31.934Z,2.09
2023-12-09T04:25:31.916Z,2.08
2023-12-09T04:27:31.980Z,2.07
2023-12-09T04:29:31.964Z,2.07
2023-12-09T04:31:31.913Z,2.07
2023-12-09T04:33:32.035Z,2.08
2023-12-09T04:36:40.806Z,2.01
2023-12-09T04:38:40.808Z,1.96
2023-12-09T04:40:40.794Z,1.99
2023-12-09T04:42:40.814Z,2.05
2023-12-09T04:44:40.967Z,2.05
2023-12-09T04:46:40.773Z,2.1
2023-12-09T04:48:40.902Z,2.1
2023-12-09T04:51:14.077Z,2.1
2023-12-09T04:53:14.029Z,2.05
2023-12-09T04:55:14.113Z,2.04
2023-12-09T04:57:14.066Z,2.03
2023-12-09T04:59:14.180Z,2.05
2023-12-09T05:01:14.114Z,2.06
2023-12-09T05:03:14.111Z,2.09
2023-12-09T05:06:40.361Z,2.08
2023-12-09T05:08:40.281Z,2.08
2023-12-09T05:10:40.260Z,1.98
2023-12-09T05:12:40.347Z,1.99
2023-12-09T05:14:40.221Z,2.1
2023-12-09T05:16:40.279Z,2.1
2023-12-09T05:18:40.321Z,2.11
2023-12-09T05:21:47.329Z,2.09
2023-12-09T05:23:47.294Z,2.12
2023-12-09T05:25:47.478Z,2.16
2023-12-09T05:27:47.456Z,2.17
2023-12-09T05:29:47.281Z,2.17
2023-12-09T05:31:47.383Z,2.1
2023-12-09T05:33:47.441Z,2.09
2023-12-09T05:37:09.284Z,2.12
2023-12-09T05:39:09.270Z,2.13
2023-12-09T05:41:09.058Z,2.12
2023-12-09T05:43:09.136Z,2.07
2023-12-09T05:45:09.100Z,2.12
2023-12-09T05:47:09.043Z,2.14
2023-12-09T05:49:09.195Z,2.17
2023-12-09T05:51:48.387Z,2.15
2023-12-09T05:53:48.430Z,2.13
2023-12-09T05:55:48.413Z,2.19
2023-12-09T05:57:48.490Z,2.18
2023-12-09T05:59:48.353Z,2.17
2023-12-09T06:01:48.524Z,2.17
2023-12-09T06:03:48.421Z,2.18
2023-12-09T06:05:48.463Z,2.16
2023-12-09T06:07:17.940Z,2.16
2023-12-09T06:09:17.949Z,2.2
2023-12-09T06:11:17.844Z,2.22
2023-12-09T06:13:17.899Z,2.26
2023-12-09T06:15:17.941Z,2.19
2023-12-09T06:17:17.832Z,2.23
2023-12-09T06:19:17.875Z,2.21
2023-12-09T06:22:38.121Z,2.23
2023-12-09T06:24:38.129Z,2.26
2023-12-09T06:26:38.095Z,2.26
2023-12-09T06:28:38.171Z,2.22
2023-12-09T06:30:38.196Z,2.36
2023-12-09T06:32:38.143Z,2.36
2023-12-09T06:34:38.098Z,2.33
2023-12-09T06:38:10.638Z,2.3
2023-12-09T06:40:10.816Z,2.34
2023-12-09T06:42:10.680Z,2.34
2023-12-09T06:44:10.577Z,2.29
2023-12-09T06:46:10.585Z,2.32
2023-12-09T06:48:10.754Z,2.37
2023-12-09T06:50:10.580Z,2.41
2023-12-09T06:53:11.041Z,2.45
2023-12-09T06:55:11.012Z,2.39
2023-12-09T06:57:11.004Z,2.42
2023-12-09T06:59:10.976Z,2.42
2023-12-09T07:01:11.089Z,2.53
2023-12-09T07:03:11.026Z,2.56
2023-12-09T07:05:10.993Z,2.47
2023-12-09T07:08:23.082Z,2.57
2023-12-09T07:10:23.112Z,2.51
2023-12-09T07:12:23.061Z,2.61
2023-12-09T07:14:23.040Z,2.62
2023-12-09T07:16:23.049Z,2.6
2023-12-09T07:18:23.093Z,2.69
2023-12-09T07:20:23.026Z,2.63
2023-12-09T07:23:32.085Z,2.66
2023-12-09T07:25:32.100Z,2.54
2023-12-09T07:27:32.658Z,2.68
2023-12-09T07:29:32.335Z,2.61
2023-12-09T07:31:32.103Z,2.68
2023-12-09T07:33:32.348Z,2.77
2023-12-09T07:35:32.183Z,2.86
2023-12-09T07:38:37.972Z,2.92
2023-12-09T07:40:37.062Z,2.95
2023-12-09T07:42:37.055Z,2.84
2023-12-09T07:44:37.074Z,2.88
2023-12-09T07:46:37.060Z,2.95
2023-12-09T07:48:37.138Z,2.98
2023-12-09T07:50:37.198Z,3.08
2023-12-09T07:53:28.611Z,3.23
2023-12-09T07:55:28.594Z,2.92
2023-12-09T07:57:28.845Z,3.03
2023-12-09T07:59:28.687Z,3.08
2023-12-09T08:01:28.613Z,3.2
2023-12-09T08:03:28.826Z,3.24
2023-12-09T08:05:28.592Z,2.97
2023-12-09T08:08:29.088Z,2.82
2023-12-09T08:10:29.056Z,3.03
2023-12-09T08:12:29.235Z,3
2023-12-09T08:14:29.151Z,2.96
2023-12-09T08:16:29.061Z,3.18
2023-12-09T08:18:29.133Z,3.23
2023-12-09T08:20:29.074Z,3.1
2023-12-09T08:23:43.688Z,3.12
2023-12-09T08:25:43.754Z,3.29
2023-12-09T08:27:43.850Z,3.39
2023-12-09T08:29:43.682Z,3.43
2023-12-09T08:31:43.690Z,3.42
2023-12-09T08:33:43.834Z,3.34
2023-12-09T08:35:43.682Z,3.02
2023-12-09T08:38:37.367Z,3.41
2023-12-09T08:40:37.386Z,3.36
2023-12-09T08:42:37.430Z,3.07
2023-12-09T08:44:37.370Z,2.95
2023-12-09T08:46:37.402Z,3.17
2023-12-09T08:48:37.449Z,3.23
2023-12-09T08:50:37.393Z,3.34
2023-12-09T08:52:37.401Z,3.39
2023-12-09T08:54:00.856Z,3.51
2023-12-09T08:56:00.887Z,3.53
2023-12-09T08:58:00.851Z,3.42
2023-12-09T09:00:00.895Z,3.43
2023-12-09T09:02:00.850Z,3.31
2023-12-09T09:04:00.884Z,3.23
2023-12-09T09:06:01.047Z,3.39
2023-12-09T09:09:22.183Z,3.38
2023-12-09T09:11:22.043Z,3.23
2023-12-09T09:13:22.026Z,3.5
2023-12-09T09:15:22.188Z,3.56
2023-12-09T09:17:21.996Z,3.7
2023-12-09T09:19:22.064Z,3.83
2023-12-09T09:21:22.015Z,3.66
2023-12-09T09:24:10.411Z,3.51
2023-12-09T09:26:10.422Z,3.6
2023-12-09T09:28:10.443Z,3.91
2023-12-09T09:30:10.467Z,3.84
2023-12-09T09:32:10.437Z,3.93
2023-12-09T09:34:10.559Z,3.42
2023-12-09T09:36:10.364Z,3.08
2023-12-09T09:38:10.519Z,3.12
2023-12-09T09:39:25.180Z,3.06
2023-12-09T09:41:25.279Z,3.28
2023-12-09T09:43:25.129Z,3.01
2023-12-09T09:45:27.191Z,3.1
2023-12-09T09:47:25.132Z,3.04
2023-12-09T09:49:25.249Z,3.43
2023-12-09T09:51:26.811Z,3.48
2023-12-09T09:53:25.203Z,3.61
2023-12-09T09:54:40.232Z,3.68
2023-12-09T09:56:40.122Z,3.52
2023-12-09T09:58:40.084Z,3.51
2023-12-09T10:00:40.371Z,3.6
2023-12-09T10:02:40.036Z,3.88
2023-12-09T10:04:40.063Z,3.87
2023-12-09T10:06:40.073Z,3.98
2023-12-09T10:09:59.869Z,3.6
2023-12-09T10:11:59.923Z,3.77
2023-12-09T10:13:59.890Z,3.74
2023-12-09T10:16:00.005Z,3.86
2023-12-09T10:17:59.890Z,3.96
2023-12-09T10:19:59.918Z,4.09
2023-12-09T10:21:59.982Z,4.28
2023-12-09T10:25:32.441Z,3.77
2023-12-09T10:27:32.715Z,3.93
2023-12-09T10:29:32.456Z,3.7
2023-12-09T10:31:32.427Z,4
2023-12-09T10:33:32.572Z,3.83
2023-12-09T10:35:32.409Z,3.12
2023-12-09T10:37:32.404Z,3.1
2023-12-09T10:40:55.982Z,3.55
2023-12-09T10:42:56.019Z,3.74
2023-12-09T10:44:56.011Z,3.84
2023-12-09T10:46:55.940Z,3.84
2023-12-09T10:48:56.009Z,3.86
2023-12-09T10:50:56.053Z,3.99
2023-12-09T10:52:56.060Z,4.02
2023-12-09T10:55:17.159Z,4.17
2023-12-09T10:57:17.153Z,4.28
2023-12-09T10:59:17.115Z,4.33
2023-12-09T11:01:17.194Z,3.74
2023-12-09T11:03:17.231Z,3.9
2023-12-09T11:05:17.199Z,4.13
2023-12-09T11:07:17.084Z,4
2023-12-09T11:10:39.570Z,3.78
2023-12-09T11:12:39.671Z,4.14
2023-12-09T11:14:39.601Z,4.38
2023-12-09T11:16:39.593Z,4.2
2023-12-09T11:18:39.725Z,4.06
2023-12-09T11:20:39.563Z,4.2
2023-12-09T11:22:39.577Z,4.42
2023-12-09T11:25:33.757Z,4.52
2023-12-09T11:27:33.936Z,3.21
2023-12-09T11:29:33.749Z,3.3
2023-12-09T11:31:33.791Z,3.72
2023-12-09T11:33:34.048Z,3.09
2023-12-09T11:35:33.838Z,3.33
2023-12-09T11:37:33.812Z,3.72
2023-12-09T11:39:33.763Z,4.1
2023-12-09T11:41:15.008Z,4.35
2023-12-09T11:43:15.133Z,4.56
2023-12-09T11:45:15.015Z,4.55
2023-12-09T11:47:15.100Z,4.44
2023-12-09T11:49:15.276Z,4.08
2023-12-09T11:51:15.010Z,4.15
2023-12-09T11:53:15.167Z,4.55
2023-12-09T11:56:20.289Z,4.71
2023-12-09T11:58:20.282Z,4.62
2023-12-09T12:00:20.493Z,3.59
2023-12-09T12:02:20.333Z,3.49
2023-12-09T12:04:20.347Z,3.89
2023-12-09T12:06:20.351Z,4.02
2023-12-09T12:08:20.363Z,3.91
2023-12-09T12:11:54.710Z,4.27
2023-12-09T12:13:54.723Z,4.35
2023-12-09T12:15:54.629Z,4.55
2023-12-09T12:17:54.708Z,4.53
2023-12-09T12:19:54.778Z,4.57
2023-12-09T12:21:54.659Z,4.46
2023-12-09T12:23:55.001Z,4.59
2023-12-09T12:26:49.212Z,4.67
2023-12-09T12:28:49.207Z,4.73
2023-12-09T12:30:49.426Z,4.8
2023-12-09T12:32:49.232Z,4.82
2023-12-09T12:34:49.377Z,4.68
2023-12-09T12:36:49.451Z,4.71
2023-12-09T12:38:49.200Z,4.79
2023-12-09T12:41:31.053Z,4.66
2023-12-09T12:43:31.189Z,4.75
2023-12-09T12:45:31.109Z,4.84
2023-12-09T12:47:31.060Z,4.76
2023-12-09T12:49:31.150Z,4.74
2023-12-09T12:51:31.118Z,4.64
2023-12-09T12:53:31.004Z,4.46
2023-12-09T12:57:07.139Z,4.57
2023-12-09T12:59:07.121Z,4.35
2023-12-09T13:01:07.264Z,4.49
2023-12-09T13:03:07.163Z,4.58
2023-12-09T13:05:07.188Z,4.62
2023-12-09T13:07:07.274Z,4.49
2023-12-09T13:09:07.150Z,4.49
2023-12-09T13:12:13.784Z,4.46
2023-12-09T13:14:13.564Z,4.4
2023-12-09T13:16:13.490Z,4.51
2023-12-09T13:18:14.019Z,4.43
2023-12-09T13:20:13.690Z,4.07
2023-12-09T13:22:13.657Z,4.22
2023-12-09T13:24:13.550Z,4.41
2023-12-09T13:27:48.273Z,4.54
2023-12-09T13:29:47.798Z,4.51
2023-12-09T13:31:48.660Z,4.16
2023-12-09T13:33:47.998Z,4.19
2023-12-09T13:35:47.888Z,4.4
2023-12-09T13:37:47.865Z,4.17
2023-12-09T13:39:48.100Z,4.01
2023-12-09T13:42:47.028Z,3.96
2023-12-09T13:44:47.031Z,3.63
2023-12-09T13:46:47.081Z,3.21
2023-12-09T13:48:47.183Z,3.29
2023-12-09T13:50:47.010Z,3.37
2023-12-09T13:52:47.364Z,3.44
2023-12-09T13:54:47.146Z,3.73
2023-12-09T13:57:46.286Z,3.99
2023-12-09T13:59:49.271Z,4.09
2023-12-09T14:01:46.229Z,3.95
2023-12-09T14:03:46.359Z,3.91
2023-12-09T14:05:46.276Z,3.97
2023-12-09T14:07:46.139Z,3.86
2023-12-09T14:09:46.213Z,3.97
2023-12-09T14:13:14.822Z,3.83
2023-12-09T14:15:14.893Z,3.91
2023-12-09T14:17:14.748Z,3.88
2023-12-09T14:19:14.924Z,3.77
2023-12-09T14:21:14.790Z,3.84
2023-12-09T14:23:14.776Z,3.91
2023-12-09T14:25:14.796Z,3.86
2023-12-09T14:28:32.222Z,3.81
2023-12-09T14:30:32.204Z,3.91
2023-12-09T14:32:32.257Z,3.45
2023-12-09T14:34:32.303Z,3.37
2023-12-09T14:36:32.212Z,3.5
2023-12-09T14:38:32.130Z,3.37
2023-12-09T14:40:32.125Z,3
2023-12-09T14:43:22.118Z,2.84
2023-12-09T14:45:22.361Z,2.89
2023-12-09T14:47:21.964Z,3.04
2023-12-09T14:49:22.028Z,3.27
2023-12-09T14:51:29.800Z,3.34
2023-12-09T14:53:21.952Z,3.35
2023-12-09T14:55:21.997Z,3.36
2023-12-09T14:58:37.156Z,3.28
2023-12-09T15:00:37.163Z,3.32
2023-12-09T15:02:37.024Z,3.46
2023-12-09T15:04:37.141Z,3.49
2023-12-09T15:06:37.111Z,3.5
2023-12-09T15:08:37.050Z,3.47
2023-12-09T15:10:37.082Z,3.44
2023-12-09T15:13:17.145Z,3.47
2023-12-09T15:15:17.389Z,3.46
2023-12-09T15:17:17.181Z,3.47
2023-12-09T15:19:17.304Z,3.45
2023-12-09T15:21:17.294Z,3.41
2023-12-09T15:23:17.187Z,3.28
2023-12-09T15:25:17.168Z,2.51
2023-12-09T15:28:54.032Z,2.86
2023-12-09T15:30:54.030Z,3.05
2023-12-09T15:32:54.061Z,3.15
2023-12-09T15:34:54.086Z,3.16
2023-12-09T15:36:54.033Z,3.32
2023-12-09T15:38:54.022Z,3.34
2023-12-09T15:40:54.009Z,3.35
2023-12-09T15:43:25.116Z,3.36
2023-12-09T15:45:25.112Z,3.38
2023-12-09T15:47:25.108Z,3.38
2023-12-09T15:49:25.254Z,3.32
2023-12-09T15:51:25.164Z,3.28
2023-12-09T15:53:25.110Z,3.29
2023-12-09T15:55:25.287Z,3.3
2023-12-09T15:57:25.276Z,3.31
2023-12-09T15:59:31.026Z,3.27
2023-12-09T16:01:31.227Z,3.01
2023-12-09T16:03:31.147Z,3.13
2023-12-09T16:05:31.012Z,3.22
2023-12-09T16:07:31.128Z,3.25
2023-12-09T16:09:31.609Z,3.24
2023-12-09T16:11:30.963Z,3.19
2023-12-09T16:14:38.880Z,3.17
2023-12-09T16:16:38.790Z,3.2
2023-12-09T16:18:38.845Z,3.22
2023-12-09T16:20:38.982Z,3.22
2023-12-09T16:22:38.719Z,3.23
2023-12-09T16:24:38.874Z,3.26
2023-12-09T16:26:38.803Z,3.24
2023-12-09T16:29:18.938Z,3.15
2023-12-09T16:31:19.026Z,3.18
2023-12-09T16:33:19.071Z,3.14
2023-12-09T16:35:18.974Z,3.14
2023-12-09T16:37:18.956Z,2.9
2023-12-09T16:39:18.967Z,2.92
2023-12-09T16:41:19.080Z,3.05
2023-12-09T16:44:30.990Z,3.13
2023-12-09T16:46:30.896Z,3.17
2023-12-09T16:48:31.037Z,3.12
2023-12-09T16:50:31.095Z,3.1
2023-12-09T16:52:31.127Z,3.04
2023-12-09T16:54:31.033Z,2.99
2023-12-09T16:56:30.922Z,3.05
2023-12-09T17:00:09.372Z,3.09
2023-12-09T17:02:09.308Z,3.09
2023-12-09T17:04:09.410Z,3.08
2023-12-09T17:06:09.280Z,3.04
2023-12-09T17:08:09.338Z,3.04
2023-12-09T17:10:09.270Z,3.07
2023-12-09T17:12:09.349Z,3.05
2023-12-09T17:14:31.660Z,2.98
2023-12-09T17:16:31.742Z,3.05
2023-12-09T17:18:31.831Z,3.04
2023-12-09T17:20:31.654Z,3.03
2023-12-09T17:22:31.748Z,3.02
2023-12-09T17:24:31.886Z,2.9
2023-12-09T17:26:31.643Z,2.93
2023-12-09T17:28:31.648Z,2.93
2023-12-09T17:30:14.182Z,2.92
2023-12-09T17:32:14.027Z,2.92
2023-12-09T17:34:14.118Z,2.95
2023-12-09T17:36:14.120Z,2.94
2023-12-09T17:38:14.044Z,2.95
2023-12-09T17:40:14.132Z,2.96
2023-12-09T17:42:14.148Z,2.97
2023-12-09T17:45:34.603Z,2.86
2023-12-09T17:47:34.586Z,2.93
2023-12-09T17:49:34.734Z,2.89
2023-12-09T17:51:34.544Z,2.87
2023-12-09T17:53:34.611Z,2.88
2023-12-09T17:55:34.646Z,2.89
2023-12-09T17:57:34.557Z,2.97
2023-12-09T18:00:48.324Z,2.93
2023-12-09T18:02:48.236Z,2.85
2023-12-09T18:04:48.267Z,2.85
2023-12-09T18:06:48.304Z,2.86
2023-12-09T18:08:48.612Z,2.86
2023-12-09T18:10:48.327Z,2.84
2023-12-09T18:12:48.357Z,2.29
2023-12-09T18:15:31.096Z,1.72
2023-12-09T18:17:30.826Z,1.65
2023-12-09T18:19:30.942Z,2.03
2023-12-09T18:21:31.176Z,1.57
2023-12-09T18:23:30.866Z,1.05
2023-12-09T18:25:30.899Z,1.34
2023-12-09T18:27:30.926Z,1.22
2023-12-09T18:30:35.013Z,1.67
2023-12-09T18:32:35.157Z,1.69
2023-12-09T18:34:35.040Z,2.09
2023-12-09T18:36:35.039Z,1.98
2023-12-09T18:38:35.028Z,1.79
2023-12-09T18:40:35.002Z,1.38
2023-12-09T18:42:35.082Z,1.46
2023-12-09T18:45:56.999Z,1.66
2023-12-09T18:47:57.016Z,1.43
2023-12-09T18:49:56.864Z,1.69
2023-12-09T18:51:56.837Z,1.62
2023-12-09T18:53:56.828Z,1.81
2023-12-09T18:55:56.874Z,1.76
2023-12-09T18:57:56.995Z,1.57
2023-12-09T19:01:17.307Z,1.8
2023-12-09T19:03:17.034Z,1.86
2023-12-09T19:05:16.977Z,1.85
2023-12-09T19:07:17.044Z,1.75
2023-12-09T19:09:16.968Z,2
2023-12-09T19:11:16.968Z,2.15
2023-12-09T19:13:17.071Z,2.25
2023-12-09T19:16:39.344Z,2.37
2023-12-09T19:18:39.441Z,2.38
2023-12-09T19:20:39.314Z,2.58
2023-12-09T19:22:39.330Z,2.59
2023-12-09T19:24:39.378Z,2.52
2023-12-09T19:26:39.310Z,2.54
2023-12-09T19:28:39.339Z,2.12
2023-12-09T19:31:27.140Z,2.37
2023-12-09T19:33:27.284Z,2.49
2023-12-09T19:35:27.168Z,2.36
2023-12-09T19:37:27.157Z,2.28
2023-12-09T19:39:27.444Z,2.38
2023-12-09T19:41:27.192Z,2.33
2023-12-09T19:43:27.177Z,2.01
2023-12-09T19:47:00.135Z,1.79
2023-12-09T19:48:59.995Z,1.71
2023-12-09T19:51:00.003Z,1.84
2023-12-09T19:53:00.070Z,2.04
2023-12-09T19:54:59.976Z,2.14
2023-12-09T19:56:59.928Z,1.53
2023-12-09T19:58:59.997Z,1.37
2023-12-09T20:01:14.480Z,1.28
2023-12-09T20:03:14.475Z,1.83
2023-12-09T20:05:14.432Z,2.05
2023-12-09T20:07:14.469Z,1.92
2023-12-09T20:09:14.453Z,2.21
2023-12-09T20:11:14.416Z,1.89
2023-12-09T20:13:14.520Z,2.05
2023-12-09T20:15:14.426Z,2
2023-12-09T20:17:20.350Z,1.65
2023-12-09T20:19:22.822Z,2.05
2023-12-09T20:21:20.358Z,2.19
2023-12-09T20:23:20.408Z,2.29
2023-12-09T20:25:20.362Z,2.24
2023-12-09T20:27:20.360Z,2.09
2023-12-09T20:29:20.332Z,2.08
2023-12-09T20:32:03.695Z,2.12
2023-12-09T20:34:03.640Z,2.29
2023-12-09T20:36:03.683Z,2.31
2023-12-09T20:38:03.589Z,2.21
2023-12-09T20:40:03.594Z,2.1
2023-12-09T20:42:03.584Z,2.2
2023-12-09T20:44:03.660Z,2.27
2023-12-09T20:46:59.099Z,2.04
2023-12-09T20:48:59.197Z,1.82
2023-12-09T20:50:58.967Z,1.76
2023-12-09T20:52:59.037Z,1.77
2023-12-09T20:54:59.122Z,1.83
2023-12-09T20:56:59.004Z,1.77
2023-12-09T20:58:58.993Z,1.99
2023-12-09T21:02:36.508Z,1.94
2023-12-09T21:04:36.328Z,1.62
2023-12-09T21:06:36.191Z,1.31
2023-12-09T21:08:36.495Z,1.44
2023-12-09T21:10:36.181Z,1.29
2023-12-09T21:12:36.161Z,1.16
2023-12-09T21:14:36.151Z,1
2023-12-09T21:17:09.704Z,1.36
2023-12-09T21:19:09.784Z,1.62
2023-12-09T21:21:09.815Z,1.6
2023-12-09T21:23:09.698Z,1.28
2023-12-09T21:25:09.716Z,1.02
2023-12-09T21:27:09.783Z,1.32
2023-12-09T21:29:09.689Z,1.49
2023-12-09T21:31:09.722Z,1.24
2023-12-09T21:33:04.244Z,1.16
2023-12-09T21:35:04.212Z,1.46
2023-12-09T21:37:04.198Z,1.47
2023-12-09T21:39:04.233Z,1.54
2023-12-09T21:41:04.236Z,1.81
2023-12-09T21:43:04.206Z,2.04
2023-12-09T21:45:04.161Z,2.16
2023-12-09T21:48:11.708Z,2.1
2023-12-09T21:50:11.561Z,2.19
2023-12-09T21:52:11.561Z,2.22
2023-12-09T21:54:11.673Z,2.1
2023-12-09T21:56:11.637Z,2.15
2023-12-09T21:58:11.524Z,2.18
2023-12-09T22:00:11.660Z,2.11
2023-12-09T22:02:43.911Z,2.15
2023-12-09T22:04:43.902Z,2.19
2023-12-09T22:06:43.998Z,2.25
2023-12-09T22:08:43.892Z,2.23
2023-12-09T22:10:43.880Z,2.16
2023-12-09T22:12:44.074Z,2.17
2023-12-09T22:14:43.881Z,2.13
2023-12-09T22:16:43.893Z,2.07
2023-12-09T22:17:53.933Z,2.09
2023-12-09T22:19:53.928Z,2.09
2023-12-09T22:21:53.955Z,2.11
2023-12-09T22:23:53.841Z,2.11
2023-12-09T22:25:53.968Z,2.12
2023-12-09T22:27:53.969Z,2.09
2023-12-09T22:29:53.927Z,2.13
2023-12-09T22:31:53.868Z,2.16
2023-12-09T22:33:36.295Z,2.14
2023-12-09T22:35:36.027Z,2.08
2023-12-09T22:37:36.000Z,2.18
2023-12-09T22:39:36.043Z,2.2
2023-12-09T22:41:36.073Z,2.24
2023-12-09T22:43:36.188Z,2.18
2023-12-09T22:45:36.001Z,2.17
2023-12-09T22:48:28.566Z,2.19
2023-12-09T22:50:28.413Z,2.2
2023-12-09T22:52:28.660Z,2.17
2023-12-09T22:54:28.517Z,2.2
2023-12-09T22:56:28.420Z,2.12
2023-12-09T22:58:28.381Z,2.15
2023-12-09T23:00:28.473Z,2.12
2023-12-09T23:04:09.244Z,2.07
2023-12-09T23:06:09.265Z,2.08
2023-12-09T23:08:09.157Z,2.04
2023-12-09T23:10:09.252Z,2.07
2023-12-09T23:12:09.252Z,2.04
2023-12-09T23:14:09.483Z,2.02
2023-12-09T23:16:09.544Z,1.93
2023-12-09T23:19:10.077Z,1.88
2023-12-09T23:21:10.017Z,1.87
2023-12-09T23:23:09.713Z,1.83
2023-12-09T23:25:10.073Z,1.8
2023-12-09T23:27:09.786Z,1.78
2023-12-09T23:29:09.741Z,1.76
2023-12-09T23:31:09.756Z,1.81
2023-12-09T23:34:23.913Z,1.86
2023-12-09T23:36:23.837Z,1.9
2023-12-09T23:38:23.703Z,1.8
2023-12-09T23:40:23.713Z,1.74
2023-12-09T23:42:23.842Z,1.73
2023-12-09T23:44:23.707Z,1.79
2023-12-09T23:46:23.698Z,1.73
2023-12-09T23:49:23.383Z,1.76
2023-12-09T23:51:23.386Z,1.78
2023-12-09T23:53:23.308Z,1.8
2023-12-09T23:55:23.347Z,1.78
2023-12-09T23:57:23.329Z,1.85
2023-12-09T23:59:23.557Z,1.82
